Makinen, Minnesota
Current Conditions -  °F | °C
As of 4:11 AM on Monday 26 Jan 2015 (Local Time) from KEVM Reporting Station
Light Snow Light Snow  
Wind Chill: 14°   Ceiling: 1100
Heat Index: 21°   Visibility: 3mi
Dew Point: 18°   Wind: 6mph
Humidity: 86%   Direction: 180°S
Pressure: 29.67"   Gusts: NA
Location:  47.36°N, 92.37°W
Report Text: KEVM 261011Z AUTO 18005KT 3SM -SN SCT006 BKN011 OVC019 M06/M08 A2967 RMK AO2
Loading
Personal Weather Stations






























Interactive Weather Map New forecast layout! Learn more

10-Day Weather Forecast

Advertisements
Track Severe Weather on mobile